sensor_id;sensor_type;location;lat;lon;timestamp;pressure;altitude;pressure_sealevel;temperature;humidity
75072;BME280;63651;55.728;38.022;2023-07-20T00:02:45;98126.22;;;16.56;57.36
75072;BME280;63651;55.728;38.022;2023-07-20T00:07:46;98128.13;;;16.55;57.11
75072;BME280;63651;55.728;38.022;2023-07-20T00:12:47;98133.34;;;16.52;57.16
75072;BME280;63651;55.728;38.022;2023-07-20T00:17:49;98136.91;;;16.52;57.21
75072;BME280;63651;55.728;38.022;2023-07-20T00:22:50;98133.34;;;16.52;57.46
75072;BME280;63651;55.728;38.022;2023-07-20T00:27:55;98150.34;;;16.49;57.92
75072;BME280;63651;55.728;38.022;2023-07-20T00:32:56;98149.81;;;16.42;57.78
75072;BME280;63651;55.728;38.022;2023-07-20T00:37:58;98152.28;;;16.43;57.92
75072;BME280;63651;55.728;38.022;2023-07-20T00:43:00;98159.16;;;16.36;58.12
75072;BME280;63651;55.728;38.022;2023-07-20T00:48:04;98146.28;;;16.26;58.60
75072;BME280;63651;55.728;38.022;2023-07-20T00:53:07;98152.31;;;16.28;58.41
75072;BME280;63651;55.728;38.022;2023-07-20T00:58:08;98158.91;;;16.22;58.44
75072;BME280;63651;55.728;38.022;2023-07-20T01:03:09;98163.31;;;16.13;58.89
75072;BME280;63651;55.728;38.022;2023-07-20T01:08:17;98160.28;;;16.14;58.85
75072;BME280;63651;55.728;38.022;2023-07-20T01:13:20;98158.38;;;16.05;59.01
75072;BME280;63651;55.728;38.022;2023-07-20T01:18:22;98170.41;;;16.09;59.21
75072;BME280;63651;55.728;38.022;2023-07-20T01:28:48;98163.31;;;16.08;59.21
75072;BME280;63651;55.728;38.022;2023-07-20T01:33:56;98159.47;;;16.04;59.25
75072;BME280;63651;55.728;38.022;2023-07-20T01:38:57;98161.38;;;15.98;59.47
75072;BME280;63651;55.728;38.022;2023-07-20T01:43:59;98168.25;;;15.95;59.46
75072;BME280;63651;55.728;38.022;2023-07-20T01:49:00;98160.84;;;15.96;59.41
75072;BME280;63651;55.728;38.022;2023-07-20T01:54:01;98162.75;;;15.95;59.61
75072;BME280;63651;55.728;38.022;2023-07-20T01:59:02;98161.66;;;15.91;59.77
75072;BME280;63651;55.728;38.022;2023-07-20T02:04:03;98163.31;;;15.92;60.00
75072;BME280;63651;55.728;38.022;2023-07-20T02:09:04;98174.25;;;15.92;59.86
75072;BME280;63651;55.728;38.022;2023-07-20T02:14:05;98163.31;;;15.97;59.83
75072;BME280;63651;55.728;38.022;2023-07-20T02:19:06;98163.31;;;15.87;59.96
75072;BME280;63651;55.728;38.022;2023-07-20T02:24:07;98157.28;;;15.90;59.99
75072;BME280;63651;55.728;38.022;2023-07-20T02:29:09;98166.31;;;15.91;60.05
75072;BME280;63651;55.728;38.022;2023-07-20T02:34:12;98164.41;;;15.96;59.97
75072;BME280;63651;55.728;38.022;2023-07-20T02:39:14;98167.97;;;16.02;59.93
75072;BME280;63651;55.728;38.022;2023-07-20T02:44:15;98163.59;;;16.01;60.03
75072;BME280;63651;55.728;38.022;2023-07-20T02:49:16;98178.91;;;16.07;59.85
75072;BME280;63651;55.728;38.022;2023-07-20T02:54:17;98180.84;;;16.07;59.70
75072;BME280;63651;55.728;38.022;2023-07-20T02:59:18;98188.22;;;16.11;59.60
75072;BME280;63651;55.728;38.022;2023-07-20T03:04:19;98199.47;;;16.10;59.52
75072;BME280;63651;55.728;38.022;2023-07-20T03:09:20;98187.41;;;16.06;59.88
75072;BME280;63651;55.728;38.022;2023-07-20T03:14:22;98196.44;;;16.11;59.69
75072;BME280;63651;55.728;38.022;2023-07-20T03:19:24;98195.91;;;16.19;59.82
75072;BME280;63651;55.728;38.022;2023-07-20T03:24:25;98192.88;;;16.26;59.60
75072;BME280;63651;55.728;38.022;2023-07-20T03:29:26;98204.91;;;16.35;59.02
75072;BME280;63651;55.728;38.022;2023-07-20T03:34:27;98212.59;;;16.33;59.47
75072;BME280;63651;55.728;38.022;2023-07-20T03:39:28;98208.75;;;16.34;58.93
75072;BME280;63651;55.728;38.022;2023-07-20T03:44:29;98209.56;;;16.40;59.11
75072;BME280;63651;55.728;38.022;2023-07-20T03:49:31;98217.25;;;16.43;58.63
75072;BME280;63651;55.728;38.022;2023-07-20T03:54:32;98211.75;;;16.43;58.94
75072;BME280;63651;55.728;38.022;2023-07-20T03:59:33;98206.81;;;16.50;58.56
75072;BME280;63651;55.728;38.022;2023-07-20T04:04:34;98232.59;;;16.49;58.39
75072;BME280;63651;55.728;38.022;2023-07-20T04:09:35;98228.19;;;16.53;58.34
75072;BME280;63651;55.728;38.022;2023-07-20T04:14:36;98210.09;;;16.57;58.47
75072;BME280;63651;55.728;38.022;2023-07-20T04:19:38;98214.19;;;16.59;58.01
75072;BME280;63651;55.728;38.022;2023-07-20T04:24:39;98219.41;;;16.71;58.03
75072;BME280;63651;55.728;38.022;2023-07-20T04:29:40;98222.13;;;16.86;57.42
75072;BME280;63651;55.728;38.022;2023-07-20T04:34:41;98224.03;;;16.96;57.58
75072;BME280;63651;55.728;38.022;2023-07-20T04:39:42;98221.81;;;17.03;56.94
75072;BME280;63651;55.728;38.022;2023-07-20T04:44:43;98230.47;;;17.36;56.69
75072;BME280;63651;55.728;38.022;2023-07-20T04:49:44;98224.56;;;17.68;56.06
75072;BME280;63651;55.728;38.022;2023-07-20T04:54:45;98233.50;;;17.83;55.36
75072;BME280;63651;55.728;38.022;2023-07-20T04:59:46;98228.00;;;17.88;55.05
75072;BME280;63651;55.728;38.022;2023-07-20T05:04:47;98240.53;;;18.00;54.94
75072;BME280;63651;55.728;38.022;2023-07-20T05:09:48;98257.50;;;18.12;54.69
75072;BME280;63651;55.728;38.022;2023-07-20T05:14:49;98235.75;;;18.15;54.86
75072;BME280;63651;55.728;38.022;2023-07-20T05:19:50;98230.97;;;18.31;54.73
75072;BME280;63651;55.728;38.022;2023-07-20T05:24:51;98249.66;;;18.34;53.81
75072;BME280;63651;55.728;38.022;2023-07-20T05:29:52;98250.88;;;18.13;54.51
75072;BME280;63651;55.728;38.022;2023-07-20T05:34:54;98242.69;;;18.08;54.51
75072;BME280;63651;55.728;38.022;2023-07-20T05:39:56;98243.50;;;18.08;54.57
75072;BME280;63651;55.728;38.022;2023-07-20T05:44:57;98248.69;;;18.15;54.01
75072;BME280;63651;55.728;38.022;2023-07-20T05:49:58;98247.28;;;18.17;53.80
75072;BME280;63651;55.728;38.022;2023-07-20T05:54:59;98250.31;;;18.16;53.78
75072;BME280;63651;55.728;38.022;2023-07-20T06:00:00;98254.47;;;18.13;53.38
75072;BME280;63651;55.728;38.022;2023-07-20T06:05:02;98246.47;;;18.17;53.97
75072;BME280;63651;55.728;38.022;2023-07-20T06:10:04;98237.06;;;18.28;53.63
75072;BME280;63651;55.728;38.022;2023-07-20T06:15:24;98235.03;;;18.39;52.78
75072;BME280;63651;55.728;38.022;2023-07-20T06:20:26;98250.44;;;18.40;52.27
75072;BME280;63651;55.728;38.022;2023-07-20T06:25:27;98244.88;;;18.45;52.53
75072;BME280;63651;55.728;38.022;2023-07-20T06:30:29;98253.88;;;18.55;51.39
75072;BME280;63651;55.728;38.022;2023-07-20T06:35:30;98249.69;;;18.63;51.25
75072;BME280;63651;55.728;38.022;2023-07-20T06:40:31;98255.69;;;18.70;50.94
75072;BME280;63651;55.728;38.022;2023-07-20T06:45:32;98251.47;;;18.78;51.12
75072;BME280;63651;55.728;38.022;2023-07-20T06:50:33;98266.75;;;18.89;50.07
75072;BME280;63651;55.728;38.022;2023-07-20T06:55:34;98254.59;;;18.95;50.16
75072;BME280;63651;55.728;38.022;2023-07-20T07:00:35;98272.94;;;19.05;48.88
75072;BME280;63651;55.728;38.022;2023-07-20T07:05:37;98258.88;;;19.06;48.75
75072;BME280;63651;55.728;38.022;2023-07-20T07:10:38;98259.56;;;19.17;49.21
75072;BME280;63651;55.728;38.022;2023-07-20T07:15:39;98278.72;;;19.27;49.24
75072;BME280;63651;55.728;38.022;2023-07-20T07:20:40;98258.00;;;19.35;47.47
75072;BME280;63651;55.728;38.022;2023-07-20T07:25:42;98250.41;;;19.45;46.98
75072;BME280;63651;55.728;38.022;2023-07-20T07:30:43;98269.63;;;19.56;46.44
75072;BME280;63651;55.728;38.022;2023-07-20T07:35:44;98270.69;;;19.60;44.51
75072;BME280;63651;55.728;38.022;2023-07-20T07:40:45;98234.78;;;19.65;44.41
75072;BME280;63651;55.728;38.022;2023-07-20T07:45:47;98283.13;;;19.76;42.48
75072;BME280;63651;55.728;38.022;2023-07-20T07:50:48;98270.78;;;19.73;42.35
75072;BME280;63651;55.728;38.022;2023-07-20T07:55:50;98277.25;;;19.83;41.87
75072;BME280;63651;55.728;38.022;2023-07-20T08:00:51;98269.88;;;19.97;42.40
75072;BME280;63651;55.728;38.022;2023-07-20T08:05:55;98266.00;;;19.98;41.54
75072;BME280;63651;55.728;38.022;2023-07-20T08:10:57;98286.28;;;20.07;40.11
75072;BME280;63651;55.728;38.022;2023-07-20T08:15:58;98259.16;;;20.14;40.17
75072;BME280;63651;55.728;38.022;2023-07-20T08:20:59;98273.97;;;20.18;39.74
75072;BME280;63651;55.728;38.022;2023-07-20T08:26:00;98268.59;;;20.27;40.25
75072;BME280;63651;55.728;38.022;2023-07-20T08:31:02;98284.75;;;20.33;40.45
75072;BME280;63651;55.728;38.022;2023-07-20T08:36:03;98284.34;;;20.45;39.96
75072;BME280;63651;55.728;38.022;2023-07-20T08:41:04;98298.56;;;20.52;40.48
75072;BME280;63651;55.728;38.022;2023-07-20T08:46:05;98263.63;;;20.61;40.58
75072;BME280;63651;55.728;38.022;2023-07-20T08:51:06;98266.91;;;20.63;40.13
75072;BME280;63651;55.728;38.022;2023-07-20T08:56:09;98265.66;;;20.56;40.18
75072;BME280;63651;55.728;38.022;2023-07-20T09:01:12;98283.59;;;20.72;40.58
75072;BME280;63651;55.728;38.022;2023-07-20T09:06:14;98280.38;;;20.84;39.51
75072;BME280;63651;55.728;38.022;2023-07-20T09:11:15;98256.97;;;20.81;39.34
75072;BME280;63651;55.728;38.022;2023-07-20T09:16:16;98295.53;;;20.86;39.68
75072;BME280;63651;55.728;38.022;2023-07-20T09:21:18;98290.66;;;20.78;40.32
75072;BME280;63651;55.728;38.022;2023-07-20T09:26:19;98294.56;;;20.77;40.43
75072;BME280;63651;55.728;38.022;2023-07-20T09:31:21;98296.94;;;20.84;40.64
75072;BME280;63651;55.728;38.022;2023-07-20T09:36:22;98289.41;;;20.89;41.77
75072;BME280;63651;55.728;38.022;2023-07-20T09:41:24;98302.06;;;20.90;41.69
75072;BME280;63651;55.728;38.022;2023-07-20T09:46:41;98311.94;;;21.10;41.21
75072;BME280;63651;55.728;38.022;2023-07-20T09:51:42;98295.25;;;21.15;41.30
75072;BME280;63651;55.728;38.022;2023-07-20T09:56:45;98286.88;;;21.20;40.84
75072;BME280;63651;55.728;38.022;2023-07-20T10:01:49;98290.03;;;21.14;40.59
75072;BME280;63651;55.728;38.022;2023-07-20T10:06:55;98293.00;;;21.03;40.57
75072;BME280;63651;55.728;38.022;2023-07-20T10:11:59;98329.19;;;20.69;44.32
75072;BME280;63651;55.728;38.022;2023-07-20T10:17:01;98330.22;;;20.36;46.81
75072;BME280;63651;55.728;38.022;2023-07-20T10:22:12;98334.69;;;19.94;49.38
75072;BME280;63651;55.728;38.022;2023-07-20T10:27:14;98367.19;;;19.21;51.24
75072;BME280;63651;55.728;38.022;2023-07-20T10:32:15;98349.94;;;19.10;49.36
75072;BME280;63651;55.728;38.022;2023-07-20T10:37:54;98346.44;;;19.04;51.52
75072;BME280;63651;55.728;38.022;2023-07-20T10:43:06;98341.97;;;19.08;50.88
75072;BME280;63651;55.728;38.022;2023-07-20T10:48:15;98323.81;;;19.07;51.31
75072;BME280;63651;55.728;38.022;2023-07-20T10:53:18;98324.53;;;19.42;51.79
75072;BME280;63651;55.728;38.022;2023-07-20T10:58:19;98334.00;;;19.84;52.56
75072;BME280;63651;55.728;38.022;2023-07-20T11:03:31;98325.47;;;20.04;51.18
75072;BME280;63651;55.728;38.022;2023-07-20T11:08:42;98320.56;;;20.20;48.98
75072;BME280;63651;55.728;38.022;2023-07-20T11:14:25;98317.25;;;20.36;48.57
75072;BME280;63651;55.728;38.022;2023-07-20T11:19:26;98319.91;;;20.79;47.87
75072;BME280;63651;55.728;38.022;2023-07-20T11:24:27;98310.19;;;21.14;47.30
75072;BME280;63651;55.728;38.022;2023-07-20T11:29:28;98314.94;;;21.27;47.61
75072;BME280;63651;55.728;38.022;2023-07-20T11:34:30;98330.41;;;21.42;47.17
75072;BME280;63651;55.728;38.022;2023-07-20T11:39:32;98334.09;;;21.37;46.61
75072;BME280;63651;55.728;38.022;2023-07-20T11:44:33;98333.38;;;21.32;46.91
75072;BME280;63651;55.728;38.022;2023-07-20T11:49:39;98377.56;;;21.32;46.80
75072;BME280;63651;55.728;38.022;2023-07-20T11:54:41;98374.63;;;21.09;48.16
75072;BME280;63651;55.728;38.022;2023-07-20T12:00:03;98364.69;;;21.08;48.05
75072;BME280;63651;55.728;38.022;2023-07-20T12:05:11;98357.56;;;21.21;47.31
75072;BME280;63651;55.728;38.022;2023-07-20T12:10:12;98340.84;;;21.59;46.33
75072;BME280;63651;55.728;38.022;2023-07-20T12:15:23;98335.22;;;21.78;45.82
75072;BME280;63651;55.728;38.022;2023-07-20T12:25:52;98338.69;;;22.24;44.62
75072;BME280;63651;55.728;38.022;2023-07-20T12:30:54;98343.78;;;22.31;44.92
75072;BME280;63651;55.728;38.022;2023-07-20T12:36:00;98350.88;;;22.23;45.62
75072;BME280;63651;55.728;38.022;2023-07-20T12:41:02;98348.69;;;22.34;46.17
75072;BME280;63651;55.728;38.022;2023-07-20T12:46:03;98349.44;;;22.26;46.60
75072;BME280;63651;55.728;38.022;2023-07-20T12:51:05;98349.00;;;22.32;46.86
75072;BME280;63651;55.728;38.022;2023-07-20T12:56:07;98345.63;;;22.35;46.18
75072;BME280;63651;55.728;38.022;2023-07-20T13:01:08;98348.06;;;22.37;46.32
75072;BME280;63651;55.728;38.022;2023-07-20T13:06:09;98353.38;;;22.47;46.16
75072;BME280;63651;55.728;38.022;2023-07-20T13:11:10;98344.19;;;22.60;45.21
75072;BME280;63651;55.728;38.022;2023-07-20T13:16:11;98349.72;;;22.60;45.40
75072;BME280;63651;55.728;38.022;2023-07-20T13:21:12;98350.53;;;22.61;44.26
75072;BME280;63651;55.728;38.022;2023-07-20T13:26:14;98329.28;;;22.70;44.44
75072;BME280;63651;55.728;38.022;2023-07-20T13:31:15;98333.88;;;22.75;44.40
75072;BME280;63651;55.728;38.022;2023-07-20T13:36:18;98340.53;;;22.74;44.44
75072;BME280;63651;55.728;38.022;2023-07-20T13:41:19;98328.31;;;22.88;43.71
75072;BME280;63651;55.728;38.022;2023-07-20T13:46:20;98338.47;;;23.02;43.23
75072;BME280;63651;55.728;38.022;2023-07-20T13:51:21;98332.00;;;23.06;41.88
75072;BME280;63651;55.728;38.022;2023-07-20T13:56:22;98323.41;;;23.16;41.89
75072;BME280;63651;55.728;38.022;2023-07-20T14:01:23;98317.00;;;23.07;41.71
75072;BME280;63651;55.728;38.022;2023-07-20T14:06:25;98307.97;;;23.24;42.03
75072;BME280;63651;55.728;38.022;2023-07-20T14:11:27;98331.34;;;23.09;42.60
75072;BME280;63651;55.728;38.022;2023-07-20T14:16:28;98321.00;;;22.92;42.81
75072;BME280;63651;55.728;38.022;2023-07-20T14:21:29;98317.16;;;22.80;43.29
75072;BME280;63651;55.728;38.022;2023-07-20T14:26:31;98317.75;;;22.77;43.59
75072;BME280;63651;55.728;38.022;2023-07-20T14:31:32;98335.69;;;22.79;48.38
75072;BME280;63651;55.728;38.022;2023-07-20T14:36:33;98342.94;;;22.66;47.26
75072;BME280;63651;55.728;38.022;2023-07-20T14:41:35;98341.47;;;22.47;47.87
75072;BME280;63651;55.728;38.022;2023-07-20T14:46:36;98338.00;;;22.41;47.74
75072;BME280;63651;55.728;38.022;2023-07-20T14:51:37;98334.53;;;22.35;48.39
75072;BME280;63651;55.728;38.022;2023-07-20T14:56:51;98347.25;;;22.37;47.84
75072;BME280;63651;55.728;38.022;2023-07-20T15:01:55;98339.41;;;22.52;46.26
75072;BME280;63651;55.728;38.022;2023-07-20T15:06:56;98335.66;;;22.93;46.08
75072;BME280;63651;55.728;38.022;2023-07-20T15:11:57;98346.84;;;23.10;43.95
75072;BME280;63651;55.728;38.022;2023-07-20T15:16:58;98340.63;;;23.36;43.31
75072;BME280;63651;55.728;38.022;2023-07-20T15:21:59;98339.88;;;23.44;43.16
75072;BME280;63651;55.728;38.022;2023-07-20T15:27:00;98345.19;;;23.63;43.06
75072;BME280;63651;55.728;38.022;2023-07-20T15:32:03;98352.59;;;23.76;41.25
75072;BME280;63651;55.728;38.022;2023-07-20T15:37:05;98347.75;;;23.90;40.40
75072;BME280;63651;55.728;38.022;2023-07-20T15:42:06;98359.88;;;24.20;41.28
75072;BME280;63651;55.728;38.022;2023-07-20T15:47:08;98337.31;;;25.42;37.79
75072;BME280;63651;55.728;38.022;2023-07-20T15:52:09;98350.22;;;26.86;35.11
75072;BME280;63651;55.728;38.022;2023-07-20T15:57:12;98344.59;;;26.53;37.21
75072;BME280;63651;55.728;38.022;2023-07-20T16:02:13;98365.75;;;27.73;35.72
75072;BME280;63651;55.728;38.022;2023-07-20T16:07:14;98351.69;;;29.11;28.67
75072;BME280;63651;55.728;38.022;2023-07-20T16:12:15;98346.09;;;27.70;29.41
75072;BME280;63651;55.728;38.022;2023-07-20T16:17:16;98388.34;;;26.52;30.96
75072;BME280;63651;55.728;38.022;2023-07-20T16:22:18;98363.84;;;26.16;31.87
75072;BME280;63651;55.728;38.022;2023-07-20T16:27:19;98367.81;;;26.06;32.68
75072;BME280;63651;55.728;38.022;2023-07-20T16:32:20;98373.19;;;26.41;33.96
75072;BME280;63651;55.728;38.022;2023-07-20T16:37:21;98370.59;;;29.74;25.72
75072;BME280;63651;55.728;38.022;2023-07-20T16:42:23;98370.94;;;30.70;27.30
75072;BME280;63651;55.728;38.022;2023-07-20T16:47:25;98383.88;;;30.94;24.33
75072;BME280;63651;55.728;38.022;2023-07-20T16:52:27;98385.88;;;29.05;29.59
75072;BME280;63651;55.728;38.022;2023-07-20T16:57:28;98382.38;;;27.82;31.14
75072;BME280;63651;55.728;38.022;2023-07-20T17:02:30;98386.59;;;27.10;30.16
75072;BME280;63651;55.728;38.022;2023-07-20T17:07:31;98395.19;;;26.04;32.58
75072;BME280;63651;55.728;38.022;2023-07-20T17:12:32;98394.50;;;25.69;32.18
75072;BME280;63651;55.728;38.022;2023-07-20T17:17:33;98406.03;;;25.33;32.97
75072;BME280;63651;55.728;38.022;2023-07-20T17:22:34;98407.88;;;25.03;34.27
75072;BME280;63651;55.728;38.022;2023-07-20T17:27:35;98415.31;;;24.68;34.86
75072;BME280;63651;55.728;38.022;2023-07-20T17:32:36;98419.22;;;24.41;36.90
75072;BME280;63651;55.728;38.022;2023-07-20T17:37:37;98430.03;;;24.03;36.73
75072;BME280;63651;55.728;38.022;2023-07-20T17:42:40;98424.78;;;23.62;37.91
75072;BME280;63651;55.728;38.022;2023-07-20T17:47:41;98433.91;;;23.40;38.46
75072;BME280;63651;55.728;38.022;2023-07-20T17:52:43;98437.81;;;23.17;39.43
75072;BME280;63651;55.728;38.022;2023-07-20T17:57:44;98442.94;;;23.01;39.10
75072;BME280;63651;55.728;38.022;2023-07-20T18:02:45;98446.06;;;22.86;39.25
75072;BME280;63651;55.728;38.022;2023-07-20T18:07:46;98446.69;;;22.69;41.43
75072;BME280;63651;55.728;38.022;2023-07-20T18:12:47;98440.50;;;22.50;44.35
75072;BME280;63651;55.728;38.022;2023-07-20T18:17:48;98447.59;;;22.28;44.17
75072;BME280;63651;55.728;38.022;2023-07-20T18:22:49;98441.56;;;22.13;41.01
75072;BME280;63651;55.728;38.022;2023-07-20T18:27:50;98433.50;;;21.84;40.65
75072;BME280;63651;55.728;38.022;2023-07-20T18:32:51;98431.31;;;21.53;40.41
75072;BME280;63651;55.728;38.022;2023-07-20T18:37:52;98426.78;;;21.30;40.74
75072;BME280;63651;55.728;38.022;2023-07-20T18:42:53;98430.75;;;21.05;41.17
75072;BME280;63651;55.728;38.022;2023-07-20T18:47:54;98424.16;;;20.87;41.72
75072;BME280;63651;55.728;38.022;2023-07-20T18:52:56;98423.41;;;20.82;44.59
75072;BME280;63651;55.728;38.022;2023-07-20T18:57:58;98422.16;;;21.25;47.50
75072;BME280;63651;55.728;38.022;2023-07-20T19:02:59;98423.63;;;21.36;46.82
75072;BME280;63651;55.728;38.022;2023-07-20T19:08:00;98420.22;;;21.26;44.70
75072;BME280;63651;55.728;38.022;2023-07-20T19:13:03;98410.03;;;21.21;43.94
75072;BME280;63651;55.728;38.022;2023-07-20T19:18:04;98417.50;;;21.21;45.33
75072;BME280;63651;55.728;38.022;2023-07-20T19:23:06;98430.38;;;21.12;46.19
75072;BME280;63651;55.728;38.022;2023-07-20T19:28:07;98429.84;;;21.09;46.27
75072;BME280;63651;55.728;38.022;2023-07-20T19:33:08;98429.63;;;21.06;46.14
75072;BME280;63651;55.728;38.022;2023-07-20T19:38:10;98412.28;;;20.87;47.46
75072;BME280;63651;55.728;38.022;2023-07-20T19:43:11;98425.03;;;21.01;48.26
75072;BME280;63651;55.728;38.022;2023-07-20T19:48:16;98420.84;;;21.04;48.52
75072;BME280;63651;55.728;38.022;2023-07-20T19:53:23;98422.91;;;21.12;48.82
75072;BME280;63651;55.728;38.022;2023-07-20T19:58:24;98437.84;;;21.11;49.25
75072;BME280;63651;55.728;38.022;2023-07-20T20:03:25;98437.09;;;21.05;48.33
75072;BME280;63651;55.728;38.022;2023-07-20T20:08:26;98437.94;;;21.06;49.47
75072;BME280;63651;55.728;38.022;2023-07-20T20:13:27;98443.44;;;21.06;49.09
75072;BME280;63651;55.728;38.022;2023-07-20T20:18:28;98449.50;;;21.08;49.48
75072;BME280;63651;55.728;38.022;2023-07-20T20:23:29;98456.94;;;21.07;50.04
75072;BME280;63651;55.728;38.022;2023-07-20T20:28:30;98457.47;;;21.09;48.68
75072;BME280;63651;55.728;38.022;2023-07-20T20:33:31;98452.25;;;21.08;49.12
75072;BME280;63651;55.728;38.022;2023-07-20T20:38:36;98446.22;;;21.06;48.54
75072;BME280;63651;55.728;38.022;2023-07-20T20:43:37;98450.91;;;21.05;48.55
75072;BME280;63651;55.728;38.022;2023-07-20T20:48:41;98450.69;;;21.02;48.08
75072;BME280;63651;55.728;38.022;2023-07-20T20:53:45;98451.22;;;21.04;48.68
75072;BME280;63651;55.728;38.022;2023-07-20T20:58:46;98455.19;;;20.98;47.76
75072;BME280;63651;55.728;38.022;2023-07-20T21:03:50;98451.28;;;20.99;47.11
75072;BME280;63651;55.728;38.022;2023-07-20T21:08:51;98462.63;;;20.97;48.31
75072;BME280;63651;55.728;38.022;2023-07-20T21:13:52;98472.19;;;21.05;49.14
75072;BME280;63651;55.728;38.022;2023-07-20T21:18:54;98473.00;;;21.05;49.80
75072;BME280;63651;55.728;38.022;2023-07-20T21:23:55;98478.00;;;21.03;50.12
75072;BME280;63651;55.728;38.022;2023-07-20T21:28:56;98467.78;;;21.04;49.79
75072;BME280;63651;55.728;38.022;2023-07-20T21:33:57;98480.97;;;21.07;49.77
75072;BME280;63651;55.728;38.022;2023-07-20T21:38:58;98481.81;;;21.07;49.36
75072;BME280;63651;55.728;38.022;2023-07-20T21:43:59;98469.03;;;21.12;49.19
75072;BME280;63651;55.728;38.022;2023-07-20T21:49:00;98478.53;;;21.05;49.62
75072;BME280;63651;55.728;38.022;2023-07-20T21:54:01;98481.19;;;21.11;49.63
75072;BME280;63651;55.728;38.022;2023-07-20T21:59:02;98479.94;;;21.03;47.23
75072;BME280;63651;55.728;38.022;2023-07-20T22:04:03;98480.31;;;20.96;46.19
75072;BME280;63651;55.728;38.022;2023-07-20T22:09:04;98486.44;;;20.93;47.16
75072;BME280;63651;55.728;38.022;2023-07-20T22:14:06;98486.28;;;20.85;47.16
75072;BME280;63651;55.728;38.022;2023-07-20T22:19:07;98490.63;;;20.91;47.50
75072;BME280;63651;55.728;38.022;2023-07-20T22:24:08;98492.78;;;20.94;48.44
75072;BME280;63651;55.728;38.022;2023-07-20T22:29:09;98486.97;;;20.95;48.73
75072;BME280;63651;55.728;38.022;2023-07-20T22:34:10;98473.47;;;20.94;48.74
75072;BME280;63651;55.728;38.022;2023-07-20T22:39:11;98483.59;;;20.98;48.77
75072;BME280;63651;55.728;38.022;2023-07-20T22:44:12;98476.97;;;20.99;48.82
75072;BME280;63651;55.728;38.022;2023-07-20T22:49:13;98472.88;;;20.97;48.80
75072;BME280;63651;55.728;38.022;2023-07-20T22:54:15;98484.94;;;21.01;48.42
75072;BME280;63651;55.728;38.022;2023-07-20T22:59:16;98479.72;;;20.99;48.09
75072;BME280;63651;55.728;38.022;2023-07-20T23:04:17;98479.50;;;20.96;47.80
75072;BME280;63651;55.728;38.022;2023-07-20T23:09:18;98471.91;;;20.88;46.96
75072;BME280;63651;55.728;38.022;2023-07-20T23:14:19;98477.25;;;20.79;45.34
75072;BME280;63651;55.728;38.022;2023-07-20T23:19:21;98477.69;;;20.67;45.27
75072;BME280;63651;55.728;38.022;2023-07-20T23:24:22;98473.72;;;20.55;45.47
75072;BME280;63651;55.728;38.022;2023-07-20T23:29:23;98469.16;;;20.45;45.69
75072;BME280;63651;55.728;38.022;2023-07-20T23:34:24;98469.22;;;20.40;45.60
75072;BME280;63651;55.728;38.022;2023-07-20T23:39:25;98467.09;;;20.32;45.72
75072;BME280;63651;55.728;38.022;2023-07-20T23:44:26;98477.38;;;20.26;45.54
75072;BME280;63651;55.728;38.022;2023-07-20T23:49:28;98476.31;;;20.22;45.78
75072;BME280;63651;55.728;38.022;2023-07-20T23:54:30;98467.81;;;20.19;45.42
75072;BME280;63651;55.728;38.022;2023-07-20T23:59:31;98463.72;;;20.16;45.88
